Greenville, WI (54942)

6:53 PM CST on November 26, 2014 (GMT -0600)
East End, School Road | Change Station
CLOSE
Current Station
Personal Weather Station
Location: Greenville, WI
Elevation: 880 ft
Nearby Weather Stations

Elev 880 ft 44.29 °N, 88.52 °W | Updated 3 seconds ago

Mostly Cloudy
Mostly Cloudy
18.1 °F
Feels Like 18 °F
N
2.0
Wind Variable Wind from WNW
Gusts 3.0 mph

Today
High -- | Low -- °F
--% Chance of Precip.
Yesterday
High -- | Low -- °F
Precip. -- in
7:04 AM 4:18 PM
Waxing Crescent, 24% visible
Pressure 30.17 in
Visibility 7.0 miles
Clouds Mostly Cloudy 10000 ft
Windchill 18 °F
Dew Point 16 °F
Humidity 93%
Rainfall 0.00 in
Snow Depth Not available.
UV 0 out of 12
Pollen .10 out of 12
Air Quality Not available.
Flu Activity Not available.
METAR KATW 270045Z 30005KT 7SM BKN100 M09/M09 A3017

More Conditions Fewer Conditions

Pressure 30.17 in
Visibility 7.0 miles
Clouds Mostly Cloudy 10000 ft
Windchill 18 °F
Dew Point 16 °F
Humidity 93%
Rainfall 0.00 in
Snow Depth Not available.
UV 0 out of 12
Pollen .10 out of 12
Air Quality Not available.
Flu Activity Not available.
METAR KATW 270045Z 30005KT 7SM BKN100 M09/M09 A3017

More Conditions Fewer Conditions

10-Day Weather Forecast

Almanac

Astronomy

Nov. 26, 2014 Rise Set
Actual Time
Civil Twilight
Nautical Twilight
Astronomical Twilight
Moon
Length of Visible Light
Length of Day
Tomorrow will be .
, % of the Moon is Illuminated

Today's Extremes

State Highs State Lows

Community

WunderPhotos

Upload Photos

1,773,930 photos uploaded!

WunderBlogs® & News

Nearby

Air Quality

  Air Quality AQ Index Pollutant
Not available.

Snow Depth

Station Depth Elevation

Earthquake Activity

City Distance Mag. Time & Date
Minimum magnitude displayed is 2.5.

Coastal Water Temperatures

Place Temperature

Nearby Weather Stations